TimePST,TemperatureF,Dew PointF,Humidity,Sea Level PressureIn,VisibilityMPH,Wind Direction,Wind SpeedMPH,Gust SpeedMPH,PrecipitationIn,Events,Conditions,WindDirDegrees,DateUTC
12:56 AM,39.9,37.9,93,29.86,10.0,South,12.7,-,N/A,,Mostly Cloudy,180,2012-12-16 08:56:00
1:56 AM,39.0,37.9,96,29.85,10.0,South,6.9,-,N/A,,Clear,180,2012-12-16 09:56:00
2:56 AM,39.9,37.9,93,29.86,10.0,South,9.2,-,N/A,,Mostly Cloudy,180,2012-12-16 10:56:00
3:56 AM,42.1,39.0,89,29.85,10.0,South,10.4,-,0.00,Rain,Light Rain,190,2012-12-16 11:56:00
4:56 AM,41.0,39.0,93,29.84,10.0,South,9.2,-,0.01,,Overcast,190,2012-12-16 12:56:00
5:56 AM,42.1,39.0,89,29.84,10.0,South,13.8,-,0.00,Rain,Light Rain,180,2012-12-16 13:56:00
6:56 AM,41.0,39.0,93,29.83,10.0,South,11.5,-,0.02,Rain,Light Rain,180,2012-12-16 14:56:00
7:56 AM,42.1,39.0,89,29.81,10.0,SSE,11.5,-,0.00,Rain,Light Rain,160,2012-12-16 15:56:00
8:56 AM,42.1,39.9,92,29.80,8.0,South,11.5,-,0.02,Rain,Light Rain,170,2012-12-16 16:56:00
9:08 AM,42.8,39.2,87,29.79,9.0,SSE,9.2,-,0.01,Rain,Light Rain,160,2012-12-16 17:08:00
9:19 AM,42.8,39.2,87,29.79,7.0,SSE,9.2,-,0.02,Rain,Light Rain,160,2012-12-16 17:19:00
9:56 AM,42.1,39.9,92,29.77,7.0,SSE,11.5,-,0.05,Rain,Light Rain,160,2012-12-16 17:56:00
10:05 AM,42.8,39.2,87,29.77,8.0,SSE,11.5,-,0.00,Rain,Light Rain,150,2012-12-16 18:05:00
10:12 AM,42.8,39.2,87,29.76,10.0,SSE,10.4,-,0.00,Rain,Light Rain,160,2012-12-16 18:12:00
10:53 AM,42.8,41.0,93,29.74,10.0,SSE,12.7,19.6,0.02,Rain,Light Rain,150,2012-12-16 18:53:00
10:56 AM,43.0,41.0,93,29.74,10.0,SSE,11.5,19.6,0.03,Rain,Light Rain,150,2012-12-16 18:56:00
11:56 AM,43.0,39.9,89,29.68,10.0,SSE,11.5,24.2,0.02,Rain,Light Rain,160,2012-12-16 19:56:00
12:56 PM,43.0,39.9,89,29.61,10.0,SSE,11.5,-,0.02,Rain,Light Rain,160,2012-12-16 20:56:00
1:40 PM,42.8,41.0,93,29.53,10.0,SSE,15.0,24.2,0.02,Rain,Light Rain,160,2012-12-16 21:40:00
1:56 PM,44.1,41.0,89,29.50,10.0,SSE,18.4,24.2,0.03,Rain,Light Rain,160,2012-12-16 21:56:00
2:03 PM,44.6,41.0,87,29.49,10.0,SSE,17.3,27.6,0.00,Rain,Light Rain,160,2012-12-16 22:03:00
2:56 PM,45.0,41.0,86,29.42,10.0,SSE,21.9,31.1,0.00,Rain,Light Rain,160,2012-12-16 22:56:00
3:56 PM,46.9,41.0,80,29.34,10.0,South,27.6,39.1,0.00,,Overcast,170,2012-12-16 23:56:00
4:03 PM,46.4,41.0,81,29.34,10.0,South,28.8,39.1,0.00,Rain,Light Rain,180,2012-12-17 00:03:00
4:56 PM,48.0,43.0,83,29.28,10.0,South,32.2,42.6,0.00,,Overcast,180,2012-12-17 00:56:00
5:56 PM,48.0,45.0,89,29.25,5.0,South,25.3,39.1,0.08,Rain,Heavy Rain,180,2012-12-17 01:56:00
6:56 PM,48.9,46.0,90,29.19,6.0,South,27.6,38.0,0.09,,Overcast,170,2012-12-17 02:56:00
7:05 PM,48.2,46.4,93,29.19,4.0,South,32.2,41.4,0.02,Rain,Heavy Rain,170,2012-12-17 03:05:00
7:08 PM,48.2,46.4,93,29.18,4.0,South,28.8,43.7,0.03,Rain,Heavy Rain,170,2012-12-17 03:08:00
7:34 PM,50.0,46.4,87,29.25,5.0,SSW,12.7,31.1,0.14,Rain,Light Rain,210,2012-12-17 03:34:00
7:56 PM,51.1,46.9,86,29.22,10.0,SSW,17.3,25.3,0.14,,Overcast,210,2012-12-17 03:56:00
8:49 PM,51.8,44.6,76,29.23,10.0,SW,20.7,31.1,0.00,Rain,Light Rain,230,2012-12-17 04:49:00
8:56 PM,50.0,45.0,83,29.24,10.0,SW,17.3,31.1,0.00,Rain,Light Rain,220,2012-12-17 04:56:00
9:56 PM,50.0,43.0,77,29.23,5.0,SSW,29.9,46.0,0.00,Rain,Rain,210,2012-12-17 05:56:00
10:56 PM,48.9,44.1,83,29.25,9.0,SSW,17.3,35.7,0.01,Rain,Light Rain,200,2012-12-17 06:56:00
11:56 PM,48.9,43.0,80,29.29,10.0,SW,24.2,36.8,0.01,Rain,Light Rain,220,2012-12-17 07:56:00